Time;durP1;ratioP1;P1;durP2;ratioP2;P2;SDS_P1;SDS_P2;PMS_P1;PMS_P2;Temp;Humidity;BMP_temperature;BMP_pressure;BME280_temperature;BME280_humidity;BME280_pressure;Samples;Min_cycle;Max_cycle;Signal;HPM_P1;HPM_P2
2021/11/24 00:00:00;;;;;;;22.98;16.38;;;;;;;;;;5011718;28;20033;-74
2021/11/24 00:02:26;;;;;;;25.25;18.25;;;;;;;;;;5011914;28;20030;-73
2021/11/24 00:04:53;;;;;;;26.10;18.10;;;;;;;;;;5011468;28;20026;-76
2021/11/24 00:07:19;;;;;;;25.17;18.92;;;;;;;;;;5011686;28;20033;-74
2021/11/24 00:09:45;;;;;;;28.08;20.17;;;;;;;;;;5011328;28;20030;-73
2021/11/24 00:12:11;;;;;;;26.15;20.05;;;;;;;;;;5011816;28;20038;-75
2021/11/24 00:14:37;;;;;;;25.15;18.52;;;;;;;;;;5014274;28;20508;-74
2021/11/24 00:17:03;;;;;;;24.50;17.70;;;;;;;;;;5015233;28;20026;-74
2021/11/24 00:19:29;;;;;;;26.98;18.33;;;;;;;;;;5015312;28;20033;-74
2021/11/24 00:21:55;;;;;;;26.45;18.88;;;;;;;;;;5014740;28;20026;-74
2021/11/24 00:24:21;;;;;;;28.95;21.45;;;;;;;;;;5015291;28;20038;-75
2021/11/24 00:26:48;;;;;;;25.38;19.35;;;;;;;;;;5014938;28;20033;-75
2021/11/24 00:29:14;;;;;;;26.30;17.77;;;;;;;;;;5013972;28;20042;-75
2021/11/24 00:31:41;;;;;;;27.73;18.98;;;;;;;;;;5015051;28;20033;-72
2021/11/24 00:34:07;;;;;;;28.65;20.05;;;;;;;;;;5014890;28;20131;-74
2021/11/24 00:36:33;;;;;;;34.45;20.17;;;;;;;;;;5014832;28;20053;-71
2021/11/24 00:38:59;;;;;;;25.02;18.20;;;;;;;;;;5014735;28;20072;-75
2021/11/24 00:41:25;;;;;;;26.55;17.13;;;;;;;;;;5014955;28;20033;-74
2021/11/24 00:43:52;;;;;;;25.35;18.33;;;;;;;;;;5014713;28;20034;-73
2021/11/24 00:46:18;;;;;;;26.20;19.58;;;;;;;;;;5014904;28;20025;-75
2021/11/24 00:48:44;;;;;;;27.83;18.55;;;;;;;;;;5013471;28;20425;-74
2021/11/24 00:51:10;;;;;;;25.88;18.17;;;;;;;;;;5014416;28;20461;-73
2021/11/24 00:53:36;;;;;;;24.77;17.05;;;;;;;;;;5014664;28;20117;-74
2021/11/24 00:56:02;;;;;;;26.42;19.58;;;;;;;;;;5014175;28;20058;-75
2021/11/24 00:58:28;;;;;;;25.42;19.25;;;;;;;;;;5014709;28;20026;-74
2021/11/24 01:00:54;;;;;;;26.60;19.23;;;;;;;;;;5014420;28;20497;-74
2021/11/24 01:03:20;;;;;;;26.58;18.63;;;;;;;;;;5014349;28;20025;-72
2021/11/24 01:05:47;;;;;;;25.95;18.77;;;;;;;;;;5013229;28;20026;-75
2021/11/24 01:08:13;;;;;;;25.50;17.42;;;;;;;;;;5013880;28;20026;-74
2021/11/24 01:10:40;;;;;;;28.17;18.55;;;;;;;;;;5013169;28;20058;-74
2021/11/24 01:13:06;;;;;;;25.55;18.13;;;;;;;;;;5013868;28;20037;-74
2021/11/24 01:15:32;;;;;;;23.80;18.13;;;;;;;;;;5014373;28;20072;-73
2021/11/24 01:17:59;;;;;;;25.70;17.83;;;;;;;;;;5014228;28;20380;-74
2021/11/24 01:20:25;;;;;;;24.08;18.23;;;;;;;;;;5013918;28;20350;-74
2021/11/24 01:22:51;;;;;;;24.95;16.48;;;;;;;;;;5014017;28;20037;-74
2021/11/24 01:25:17;;;;;;;23.27;16.35;;;;;;;;;;5012842;28;20045;-74
2021/11/24 01:27:44;;;;;;;24.13;16.73;;;;;;;;;;5014124;28;20026;-72
2021/11/24 01:30:11;;;;;;;23.50;17.25;;;;;;;;;;5013626;28;20029;-73
2021/11/24 01:32:37;;;;;;;28.92;19.77;;;;;;;;;;5013887;28;20046;-73
2021/11/24 01:35:05;;;;;;;23.15;16.58;;;;;;;;;;5013699;28;20092;-74
2021/11/24 01:37:31;;;;;;;24.02;17.88;;;;;;;;;;5014022;28;20026;-73
2021/11/24 01:39:57;;;;;;;21.45;17.02;;;;;;;;;;5013795;28;20374;-74
2021/11/24 01:42:23;;;;;;;23.55;18.10;;;;;;;;;;5013561;28;20022;-74
2021/11/24 01:44:49;;;;;;;23.65;17.98;;;;;;;;;;5013882;28;20068;-74
2021/11/24 01:47:15;;;;;;;22.98;16.52;;;;;;;;;;5013399;28;20025;-74
2021/11/24 01:49:42;;;;;;;22.02;16.60;;;;;;;;;;5013585;28;20041;-74
2021/11/24 01:52:08;;;;;;;25.85;18.65;;;;;;;;;;5013253;28;20497;-74
2021/11/24 01:54:34;;;;;;;22.67;16.75;;;;;;;;;;5013502;28;20457;-74
2021/11/24 01:57:01;;;;;;;24.60;17.50;;;;;;;;;;5013418;28;20112;-74
2021/11/24 01:59:27;;;;;;;26.10;18.25;;;;;;;;;;5013154;28;20029;-74
2021/11/24 02:01:54;;;;;;;21.35;17.08;;;;;;;;;;5013483;28;20069;-73
2021/11/24 02:04:20;;;;;;;21.27;15.68;;;;;;;;;;5013034;28;20038;-74
2021/11/24 02:06:47;;;;;;;23.67;17.67;;;;;;;;;;5013437;28;20030;-74
2021/11/24 02:09:13;;;;;;;26.73;19.08;;;;;;;;;;5013143;28;20469;-74
2021/11/24 02:11:41;;;;;;;23.95;17.05;;;;;;;;;;5012555;28;20067;-74
2021/11/24 02:14:08;;;;;;;23.08;16.70;;;;;;;;;;5013124;28;20068;-75
2021/11/24 02:16:48;;;;;;;24.98;17.80;;;;;;;;;;5012797;28;20026;-73
2021/11/24 02:19:15;;;;;;;23.58;17.00;;;;;;;;;;5011482;28;20076;-74
2021/11/24 02:21:48;;;;;;;23.08;17.17;;;;;;;;;;5013096;28;20029;-73
2021/11/24 02:24:14;;;;;;;23.02;17.13;;;;;;;;;;5012657;28;20030;-74
2021/11/24 02:26:40;;;;;;;24.80;18.05;;;;;;;;;;5012799;28;20108;-75
2021/11/24 02:29:06;;;;;;;23.35;18.10;;;;;;;;;;5012443;28;20030;-74
2021/11/24 02:31:33;;;;;;;23.08;17.90;;;;;;;;;;5012801;28;20105;-74
2021/11/24 02:33:59;;;;;;;23.83;18.33;;;;;;;;;;5012608;28;20413;-73
2021/11/24 02:36:26;;;;;;;24.48;18.77;;;;;;;;;;5012408;28;20034;-73
2021/11/24 02:38:52;;;;;;;22.42;16.13;;;;;;;;;;5012835;28;20022;-74
2021/11/24 02:41:18;;;;;;;25.20;19.00;;;;;;;;;;5012404;28;20473;-73
2021/11/24 02:43:44;;;;;;;23.92;16.77;;;;;;;;;;5012625;28;20065;-73
2021/11/24 02:46:11;;;;;;;24.92;18.10;;;;;;;;;;5011118;28;20465;-74
2021/11/24 02:48:37;;;;;;;23.33;17.77;;;;;;;;;;5011250;28;20385;-73
2021/11/24 02:51:03;;;;;;;22.77;15.70;;;;;;;;;;5012358;28;20397;-75
2021/11/24 02:53:31;;;;;;;22.73;16.40;;;;;;;;;;5012235;28;20538;-74
2021/11/24 02:55:58;;;;;;;23.17;17.02;;;;;;;;;;5012616;28;20057;-73
2021/11/24 02:58:25;;;;;;;23.02;16.95;;;;;;;;;;5012194;28;20033;-73
2021/11/24 03:00:51;;;;;;;21.38;15.27;;;;;;;;;;5012495;28;20068;-73
2021/11/24 03:03:17;;;;;;;24.13;17.08;;;;;;;;;;5012020;28;20042;-75
2021/11/24 03:05:43;;;;;;;22.02;17.48;;;;;;;;;;5012435;28;20041;-74
2021/11/24 03:08:10;;;;;;;22.50;15.63;;;;;;;;;;5011984;28;20469;-75
2021/11/24 03:10:36;;;;;;;22.27;15.68;;;;;;;;;;5012144;28;20053;-75
2021/11/24 03:13:02;;;;;;;23.40;15.90;;;;;;;;;;5012188;28;20038;-74
2021/11/24 03:15:28;;;;;;;22.00;16.38;;;;;;;;;;5011924;28;20037;-73
2021/11/24 03:17:54;;;;;;;24.50;17.67;;;;;;;;;;5012267;28;20030;-74
2021/11/24 03:20:24;;;;;;;24.95;17.60;;;;;;;;;;5011822;28;20426;-74
2021/11/24 03:22:51;;;;;;;23.55;16.92;;;;;;;;;;5012193;28;20036;-74
2021/11/24 03:25:17;;;;;;;22.38;16.90;;;;;;;;;;5011747;28;20551;-74
2021/11/24 03:27:43;;;;;;;26.35;18.35;;;;;;;;;;5012105;28;20033;-74
2021/11/24 03:30:11;;;;;;;24.13;16.50;;;;;;;;;;5010563;28;20477;-74
2021/11/24 03:32:37;;;;;;;22.50;16.92;;;;;;;;;;5012134;28;20045;-73
2021/11/24 03:35:04;;;;;;;25.85;17.60;;;;;;;;;;5012135;28;20049;-73
2021/11/24 03:37:30;;;;;;;24.52;17.27;;;;;;;;;;5011660;28;20037;-75
2021/11/24 03:39:56;;;;;;;22.70;17.15;;;;;;;;;;5011942;28;20097;-76
2021/11/24 03:42:22;;;;;;;24.08;17.38;;;;;;;;;;5011605;28;20066;-73
2021/11/24 03:44:49;;;;;;;25.00;18.25;;;;;;;;;;5011907;28;20034;-73
2021/11/24 03:47:15;;;;;;;25.00;17.48;;;;;;;;;;5011661;28;20096;-74
2021/11/24 03:49:41;;;;;;;27.67;18.48;;;;;;;;;;5013103;28;20088;-75
2021/11/24 03:52:08;;;;;;;24.52;17.27;;;;;;;;;;5014603;28;20393;-73
2021/11/24 03:54:34;;;;;;;23.35;16.90;;;;;;;;;;5015435;28;20053;-73
2021/11/24 03:57:00;;;;;;;25.55;18.90;;;;;;;;;;5015870;28;20539;-74
2021/11/24 03:59:26;;;;;;;22.83;16.65;;;;;;;;;;5015341;28;20030;-74
2021/11/24 04:01:53;;;;;;;28.48;17.30;;;;;;;;;;5016129;28;20034;-73
2021/11/24 04:04:19;;;;;;;24.30;17.20;;;;;;;;;;5015537;28;20030;-74
2021/11/24 04:06:45;;;;;;;24.80;17.95;;;;;;;;;;5015489;28;20100;-75
2021/11/24 04:09:11;;;;;;;24.38;17.88;;;;;;;;;;5015213;28;20033;-73
2021/11/24 04:11:37;;;;;;;25.45;18.50;;;;;;;;;;5014863;28;20046;-74
2021/11/24 04:14:04;;;;;;;21.77;16.85;;;;;;;;;;5014203;28;20080;-76
2021/11/24 04:16:30;;;;;;;22.92;17.27;;;;;;;;;;5014873;28;20026;-73
2021/11/24 04:18:59;;;;;;;23.60;16.48;;;;;;;;;;5015371;28;20101;-73
2021/11/24 04:21:25;;;;;;;24.17;16.65;;;;;;;;;;5014993;28;20034;-74
2021/11/24 04:23:51;;;;;;;23.50;17.05;;;;;;;;;;5015173;28;20030;-73
2021/11/24 04:26:17;;;;;;;24.80;16.48;;;;;;;;;;5015151;28;20030;-73
2021/11/24 04:28:44;;;;;;;23.70;17.30;;;;;;;;;;5014938;28;20033;-74
2021/11/24 04:31:10;;;;;;;28.77;18.88;;;;;;;;;;5015087;28;20076;-73
2021/11/24 04:33:37;;;;;;;23.58;16.80;;;;;;;;;;5014842;28;20033;-75
2021/11/24 04:36:03;;;;;;;24.13;17.58;;;;;;;;;;5015031;28;20370;-73
2021/11/24 04:38:29;;;;;;;24.25;16.63;;;;;;;;;;5014784;28;20029;-74
2021/11/24 04:40:55;;;;;;;24.25;16.98;;;;;;;;;;5014630;28;20033;-73
2021/11/24 04:43:26;;;;;;;23.58;15.45;;;;;;;;;;5013533;28;20474;-74
2021/11/24 04:45:52;;;;;;;22.70;16.70;;;;;;;;;;5013416;28;20054;-73
2021/11/24 04:48:19;;;;;;;22.30;15.32;;;;;;;;;;5014758;28;20029;-73
2021/11/24 04:50:45;;;;;;;22.05;16.42;;;;;;;;;;5014357;28;20104;-75
2021/11/24 04:53:11;;;;;;;22.98;15.65;;;;;;;;;;5013179;28;20485;-73
2021/11/24 04:55:37;;;;;;;22.70;15.32;;;;;;;;;;5013510;28;20449;-73
2021/11/24 04:58:04;;;;;;;20.63;15.45;;;;;;;;;;5014588;28;20488;-73
2021/11/24 05:00:30;;;;;;;22.30;15.32;;;;;;;;;;5014337;28;20045;-75
2021/11/24 05:02:56;;;;;;;25.65;17.35;;;;;;;;;;5014532;28;20064;-73
2021/11/24 05:05:27;;;;;;;20.25;15.10;;;;;;;;;;5013116;28;20034;-74
2021/11/24 05:07:53;;;;;;;23.92;15.95;;;;;;;;;;5014372;28;20029;-74
2021/11/24 05:10:19;;;;;;;22.20;15.75;;;;;;;;;;5013823;28;20049;-74
2021/11/24 05:12:45;;;;;;;22.58;16.73;;;;;;;;;;5013797;28;20520;-75
2021/11/24 05:15:18;;;;;;;22.58;15.75;;;;;;;;;;5014398;28;20075;-75
2021/11/24 05:17:46;;;;;;;22.90;15.30;;;;;;;;;;5013999;28;20461;-74
2021/11/24 05:20:16;;;;;;;24.27;16.48;;;;;;;;;;5014334;28;20092;-74
2021/11/24 05:22:42;;;;;;;23.25;14.38;;;;;;;;;;5013978;28;20037;-75
2021/11/24 05:25:08;;;;;;;25.27;17.63;;;;;;;;;;5014220;28;20072;-74
2021/11/24 05:27:35;;;;;;;23.90;17.60;;;;;;;;;;5012614;28;20034;-75
2021/11/24 05:30:01;;;;;;;23.60;16.17;;;;;;;;;;5014065;28;20404;-74
2021/11/24 05:32:27;;;;;;;24.15;16.92;;;;;;;;;;5013468;28;20392;-76
2021/11/24 05:34:53;;;;;;;20.20;14.32;;;;;;;;;;5013882;28;20029;-74
2021/11/24 05:37:19;;;;;;;21.45;16.20;;;;;;;;;;5012749;28;20030;-74
2021/11/24 05:39:45;;;;;;;21.35;15.70;;;;;;;;;;5013708;28;20428;-74
2021/11/24 05:42:12;;;;;;;22.52;15.25;;;;;;;;;;5014094;28;20546;-78
2021/11/24 05:44:38;;;;;;;25.38;16.00;;;;;;;;;;5013684;28;20022;-77
2021/11/24 05:47:09;;;;;;;23.83;16.98;;;;;;;;;;5014049;28;20029;-76
2021/11/24 05:49:37;;;;;;;21.25;15.18;;;;;;;;;;5012271;28;20026;-78
2021/11/24 05:52:03;;;;;;;24.17;15.88;;;;;;;;;;5014096;28;20421;-78
2021/11/24 05:54:29;;;;;;;25.13;17.05;;;;;;;;;;5013548;28;20392;-74
2021/11/24 05:56:56;;;;;;;25.05;16.75;;;;;;;;;;5013646;28;20465;-75
2021/11/24 05:59:22;;;;;;;25.17;16.27;;;;;;;;;;5013671;28;20029;-79
2021/11/24 06:01:48;;;;;;;22.20;14.27;;;;;;;;;;5011991;28;20053;-76
2021/11/24 06:04:14;;;;;;;22.85;15.48;;;;;;;;;;5013704;28;20057;-76
2021/11/24 06:06:40;;;;;;;24.40;15.55;;;;;;;;;;5013304;28;20035;-77
2021/11/24 06:09:06;;;;;;;22.35;15.80;;;;;;;;;;5013561;28;20076;-79
2021/11/24 06:11:33;;;;;;;22.27;15.20;;;;;;;;;;5012628;28;20468;-77
2021/11/24 06:14:00;;;;;;;23.65;15.80;;;;;;;;;;5013359;28;20034;-79
2021/11/24 06:16:26;;;;;;;22.92;15.75;;;;;;;;;;5013244;28;20034;-80
2021/11/24 06:18:52;;;;;;;21.63;15.52;;;;;;;;;;5012840;28;20097;-74
2021/11/24 06:21:21;;;;;;;23.23;14.95;;;;;;;;;;5012026;28;20109;-77
2021/11/24 06:23:48;;;;;;;22.90;16.77;;;;;;;;;;5011415;28;20465;-79
2021/11/24 06:26:15;;;;;;;19.75;14.18;;;;;;;;;;5009338;28;20586;-78
2021/11/24 06:28:43;;;;;;;20.20;13.95;;;;;;;;;;5011842;28;20509;-76
2021/11/24 06:31:09;;;;;;;23.08;16.45;;;;;;;;;;5012309;28;20017;-76
2021/11/24 06:33:35;;;;;;;20.08;13.77;;;;;;;;;;5011375;28;20034;-74
2021/11/24 06:36:02;;;;;;;21.83;16.13;;;;;;;;;;5012402;28;20117;-77
2021/11/24 06:38:28;;;;;;;22.42;15.13;;;;;;;;;;5010533;28;20036;-73
2021/11/24 06:40:54;;;;;;;21.10;15.55;;;;;;;;;;5011300;28;20026;-77
2021/11/24 06:43:20;;;;;;;20.88;15.38;;;;;;;;;;5014199;28;20062;-74
2021/11/24 06:45:47;;;;;;;25.02;17.65;;;;;;;;;;5030495;28;20033;-76
2021/11/24 06:48:13;;;;;;;23.45;17.42;;;;;;;;;;5029883;28;20037;-74
2021/11/24 06:50:39;;;;;;;19.05;14.07;;;;;;;;;;5017891;28;20026;-77
2021/11/24 06:53:05;;;;;;;21.17;13.57;;;;;;;;;;5011512;28;20528;-77
2021/11/24 06:55:32;;;;;;;23.13;15.55;;;;;;;;;;5011560;28;20034;-75
2021/11/24 06:57:58;;;;;;;22.95;15.75;;;;;;;;;;5011655;28;20026;-74
2021/11/24 07:00:26;;;;;;;27.83;16.80;;;;;;;;;;5011286;28;20228;-74
2021/11/24 07:02:52;;;;;;;23.85;14.48;;;;;;;;;;5012085;28;20494;-78
2021/11/24 07:05:18;;;;;;;20.83;15.00;;;;;;;;;;5011525;28;20060;-76
2021/11/24 07:07:44;;;;;;;20.20;14.57;;;;;;;;;;5011070;28;20041;-75
2021/11/24 07:10:10;;;;;;;20.83;14.38;;;;;;;;;;5011008;28;20132;-75
2021/11/24 07:12:37;;;;;;;27.27;18.95;;;;;;;;;;5011327;28;20041;-76
2021/11/24 07:15:04;;;;;;;27.40;20.27;;;;;;;;;;5011601;28;20026;-75
2021/11/24 07:17:30;;;;;;;24.58;16.40;;;;;;;;;;5011000;28;20038;-76
2021/11/24 07:19:56;;;;;;;21.95;14.93;;;;;;;;;;5011815;28;20042;-74
2021/11/24 07:22:22;;;;;;;21.20;14.38;;;;;;;;;;5010630;28;20021;-76
2021/11/24 07:24:49;;;;;;;29.45;19.48;;;;;;;;;;5021317;28;20404;-78
2021/11/24 07:27:15;;;;;;;22.60;16.48;;;;;;;;;;5028114;28;20497;-80
2021/11/24 07:29:41;;;;;;;24.63;15.50;;;;;;;;;;5030448;28;20817;-78
2021/11/24 07:32:07;;;;;;;23.85;16.60;;;;;;;;;;5035632;28;20116;-73
2021/11/24 07:34:33;;;;;;;22.38;15.05;;;;;;;;;;5035141;28;21196;-70
2021/11/24 07:36:59;;;;;;;23.70;16.42;;;;;;;;;;5035258;28;20030;-74
2021/11/24 07:39:25;;;;;;;21.70;15.50;;;;;;;;;;5035013;28;20036;-78
2021/11/24 07:41:52;;;;;;;27.92;17.25;;;;;;;;;;5033835;28;20037;-79
2021/11/24 07:44:19;;;;;;;20.80;13.95;;;;;;;;;;5035197;28;20092;-74
2021/11/24 07:46:45;;;;;;;22.05;15.95;;;;;;;;;;5034949;28;20078;-77
2021/11/24 07:49:11;;;;;;;25.17;18.35;;;;;;;;;;5025877;28;20100;-76
2021/11/24 07:51:37;;;;;;;25.35;17.23;;;;;;;;;;5014609;28;20033;-75
2021/11/24 07:54:03;;;;;;;25.85;16.13;;;;;;;;;;5014999;28;20536;-79
2021/11/24 07:56:29;;;;;;;27.90;18.55;;;;;;;;;;5014685;28;20076;-76
2021/11/24 07:58:55;;;;;;;29.05;18.10;;;;;;;;;;5013446;28;20030;-76
2021/11/24 08:01:22;;;;;;;25.77;15.65;;;;;;;;;;5014764;28;20036;-77
2021/11/24 08:03:48;;;;;;;28.90;17.20;;;;;;;;;;5014950;28;20104;-78
2021/11/24 08:06:14;;;;;;;26.90;17.48;;;;;;;;;;5014339;28;20047;-75
2021/11/24 08:08:40;;;;;;;21.67;15.32;;;;;;;;;;5014432;28;20552;-77
2021/11/24 08:11:06;;;;;;;26.80;18.23;;;;;;;;;;5014859;28;20053;-73
2021/11/24 08:13:33;;;;;;;24.58;17.38;;;;;;;;;;5014353;28;20053;-74
2021/11/24 08:15:59;;;;;;;27.70;18.63;;;;;;;;;;5014860;28;20037;-74
2021/11/24 08:18:25;;;;;;;24.38;17.08;;;;;;;;;;5014463;28;20100;-77
2021/11/24 08:20:52;;;;;;;27.80;18.90;;;;;;;;;;5013374;28;20105;-77
2021/11/24 08:23:18;;;;;;;24.85;16.77;;;;;;;;;;5014507;28;20054;-77
2021/11/24 08:25:44;;;;;;;24.80;17.13;;;;;;;;;;5014330;28;20511;-73
2021/11/24 08:28:10;;;;;;;23.60;16.25;;;;;;;;;;5014360;28;20146;-74
2021/11/24 08:30:36;;;;;;;22.60;15.95;;;;;;;;;;5013694;28;20028;-74
2021/11/24 08:33:03;;;;;;;24.27;16.33;;;;;;;;;;5014216;28;20537;-74
2021/11/24 08:35:29;;;;;;;21.45;15.23;;;;;;;;;;5012369;28;20116;-73
2021/11/24 08:37:55;;;;;;;20.73;15.18;;;;;;;;;;5014510;28;20386;-74
2021/11/24 08:40:21;;;;;;;23.83;17.00;;;;;;;;;;5014058;28;20049;-73
2021/11/24 08:42:48;;;;;;;22.90;16.38;;;;;;;;;;5013726;28;20065;-78
2021/11/24 08:45:14;;;;;;;25.45;16.98;;;;;;;;;;5014275;28;20030;-77
2021/11/24 08:47:41;;;;;;;20.42;15.82;;;;;;;;;;5013965;28;20037;-76
2021/11/24 08:50:09;;;;;;;24.15;16.85;;;;;;;;;;5014174;28;20037;-74
2021/11/24 08:52:35;;;;;;;21.75;16.23;;;;;;;;;;5013894;28;20104;-74
2021/11/24 08:55:01;;;;;;;21.10;15.32;;;;;;;;;;5013679;28;20017;-76
2021/11/24 08:57:27;;;;;;;22.80;15.68;;;;;;;;;;5013830;28;20037;-74
2021/11/24 08:59:53;;;;;;;25.35;17.35;;;;;;;;;;5013290;28;20037;-74
2021/11/24 09:02:22;;;;;;;21.23;16.45;;;;;;;;;;5014166;28;20034;-75
2021/11/24 09:04:48;;;;;;;19.17;13.90;;;;;;;;;;5013588;28;20072;-74
2021/11/24 09:07:14;;;;;;;23.08;16.48;;;;;;;;;;5013345;28;20389;-71
2021/11/24 09:09:44;;;;;;;21.00;15.52;;;;;;;;;;5012888;28;20061;-74
2021/11/24 09:12:10;;;;;;;22.63;16.35;;;;;;;;;;5017728;28;20042;-75
2021/11/24 09:14:36;;;;;;;21.20;14.13;;;;;;;;;;5013518;28;20559;-74
2021/11/24 09:17:03;;;;;;;20.38;12.98;;;;;;;;;;5013084;28;20105;-75
2021/11/24 09:19:29;;;;;;;19.27;14.15;;;;;;;;;;5013264;28;20025;-78
2021/11/24 09:21:55;;;;;;;18.92;14.05;;;;;;;;;;5013276;28;20061;-78
2021/11/24 09:24:26;;;;;;;20.23;14.75;;;;;;;;;;5008938;28;20084;-75
2021/11/24 09:29:36;;;;;;;20.27;13.70;;;;;;;;;;5013368;28;20103;-73
2021/11/24 09:32:04;;;;;;;21.10;14.25;;;;;;;;;;5012781;28;20029;-73
2021/11/24 09:34:31;;;;;;;19.48;13.95;;;;;;;;;;5012779;28;20030;-73
2021/11/24 09:36:57;;;;;;;20.98;15.95;;;;;;;;;;5012485;28;20030;-73
2021/11/24 09:39:24;;;;;;;23.45;16.60;;;;;;;;;;5013322;28;20033;-77
2021/11/24 09:41:51;;;;;;;21.77;16.02;;;;;;;;;;5012345;28;20485;-75
2021/11/24 09:44:17;;;;;;;19.63;14.18;;;;;;;;;;5012795;28;20037;-75
2021/11/24 09:46:47;;;;;;;21.73;17.45;;;;;;;;;;5011977;28;20045;-75
2021/11/24 09:49:15;;;;;;;20.40;16.48;;;;;;;;;;5012484;28;20068;-74
2021/11/24 09:51:42;;;;;;;22.27;16.88;;;;;;;;;;5012842;28;20018;-76
2021/11/24 09:54:09;;;;;;;19.77;14.90;;;;;;;;;;5012608;28;20053;-74
2021/11/24 09:56:39;;;;;;;27.17;17.98;;;;;;;;;;5012683;28;20042;-73
2021/11/24 09:59:05;;;;;;;19.77;13.95;;;;;;;;;;5012483;28;20030;-74
2021/11/24 10:01:31;;;;;;;19.17;14.02;;;;;;;;;;5012484;28;20135;-74
2021/11/24 10:03:58;;;;;;;16.52;12.18;;;;;;;;;;5012335;28;20113;-74
2021/11/24 10:06:24;;;;;;;18.15;13.50;;;;;;;;;;5012173;28;20057;-75
2021/11/24 10:08:51;;;;;;;20.90;15.88;;;;;;;;;;5012717;28;20053;-74
2021/11/24 10:11:17;;;;;;;23.02;16.17;;;;;;;;;;5012017;28;20064;-73
2021/11/24 10:13:45;;;;;;;26.08;17.48;;;;;;;;;;5012742;28;20139;-73
2021/11/24 10:16:21;;;;;;;24.60;17.50;;;;;;;;;;5017024;28;20370;-74
2021/11/24 10:18:55;;;;;;;16.80;13.18;;;;;;;;;;5029320;28;20026;-73
2021/11/24 10:21:22;;;;;;;19.10;15.50;;;;;;;;;;5031896;28;20043;-73
2021/11/24 10:23:49;;;;;;;27.33;19.35;;;;;;;;;;5031914;28;20420;-74
2021/11/24 10:26:27;;;;;;;17.70;14.25;;;;;;;;;;5031644;28;20029;-74
2021/11/24 10:28:53;;;;;;;20.95;15.57;;;;;;;;;;5031916;28;20384;-75
2021/11/24 10:31:38;;;;;;;20.85;16.73;;;;;;;;;;5031492;28;20378;-75
2021/11/24 10:34:04;;;;;;;;;;;;;;;;;;5032066;28;20488;-73
2021/11/24 10:36:30;;;;;;;22.98;17.40;;;;;;;;;;5032028;28;19905;-74
2021/11/24 10:38:56;;;;;;;25.50;20.42;;;;;;;;;;5013234;28;20042;-77
2021/11/24 10:41:30;;;;;;;21.38;17.40;;;;;;;;;;5010570;28;20052;-78
2021/11/24 10:43:56;;;;;;;14.68;11.70;;;;;;;;;;5012104;28;20028;-76
2021/11/24 10:46:25;;;;;;;17.23;12.98;;;;;;;;;;5011611;28;20137;-77
2021/11/24 10:49:01;;;;;;;17.70;12.93;;;;;;;;;;5012028;28;20038;-73
2021/11/24 10:51:32;;;;;;;17.38;12.18;;;;;;;;;;5012083;28;20093;-77
2021/11/24 10:54:27;;;;;;;20.50;14.70;;;;;;;;;;5011831;28;20440;-74
2021/11/24 10:56:53;;;;;;;;;;;;;;;;;;4999445;28;20108;-74
2021/11/24 10:59:20;;;;;;;27.63;20.63;;;;;;;;;;5011216;28;20008;-76
2021/11/24 11:01:46;;;;;;;23.35;18.92;;;;;;;;;;5011698;28;20172;-76
2021/11/24 11:04:13;;;;;;;20.35;15.32;;;;;;;;;;5011506;28;20029;-74
2021/11/24 11:06:41;;;;;;;16.42;12.90;;;;;;;;;;5011580;28;20036;-73
2021/11/24 11:09:07;;;;;;;18.60;13.68;;;;;;;;;;5008916;28;20029;-75
2021/11/24 11:11:37;;;;;;;19.10;15.25;;;;;;;;;;5010283;28;20054;-75
2021/11/24 11:14:13;;;;;;;22.05;16.73;;;;;;;;;;5025971;28;20041;-76
2021/11/24 11:16:43;;;;;;;21.67;16.80;;;;;;;;;;5031266;28;20056;-76
2021/11/24 11:19:09;;;;;;;27.88;20.48;;;;;;;;;;5030953;28;20034;-76
2021/11/24 11:21:37;;;;;;;28.90;20.25;;;;;;;;;;5007761;28;20472;-75
2021/11/24 11:24:09;;;;;;;18.02;13.27;;;;;;;;;;5011498;28;20492;-74
2021/11/24 11:26:35;;;;;;;16.60;11.20;;;;;;;;;;5010572;28;20542;-73
2021/11/24 11:29:02;;;;;;;17.15;12.57;;;;;;;;;;5009342;28;20028;-74
2021/11/24 11:31:28;;;;;;;17.88;12.10;;;;;;;;;;5006130;28;20053;-75
2021/11/24 11:33:58;;;;;;;17.95;13.70;;;;;;;;;;4991334;28;20034;-76
2021/11/24 11:36:24;;;;;;;19.27;13.38;;;;;;;;;;4991829;28;20390;-74
2021/11/24 11:38:53;;;;;;;16.23;12.90;;;;;;;;;;5019801;28;20044;-74
2021/11/24 11:41:23;;;;;;;20.30;14.70;;;;;;;;;;5030817;28;20390;-77
2021/11/24 11:43:50;;;;;;;19.40;13.82;;;;;;;;;;5009463;28;20099;-75
2021/11/24 11:46:17;;;;;;;16.88;12.52;;;;;;;;;;5010422;28;20041;-74
2021/11/24 11:48:44;;;;;;;15.15;12.20;;;;;;;;;;5012053;28;20536;-75
2021/11/24 11:51:11;;;;;;;17.58;13.23;;;;;;;;;;5009929;28;20388;-74
2021/11/24 11:53:39;;;;;;;16.27;12.02;;;;;;;;;;5010993;28;20044;-74
2021/11/24 11:56:24;;;;;;;17.13;11.88;;;;;;;;;;5010896;28;20033;-75
2021/11/24 11:58:50;;;;;;;17.13;13.18;;;;;;;;;;5011395;28;20050;-76
2021/11/24 12:01:32;;;;;;;14.05;11.68;;;;;;;;;;5010489;28;20026;-78
2021/11/24 12:04:07;;;;;;;18.88;13.57;;;;;;;;;;5009382;28;20033;-77
2021/11/24 12:06:47;;;;;;;22.50;15.80;;;;;;;;;;5009472;28;20030;-75
2021/11/24 12:09:33;;;;;;;28.85;21.08;;;;;;;;;;5009409;28;20029;-76
2021/11/24 12:12:00;;;;;;;17.50;12.95;;;;;;;;;;5014228;28;20081;-74
2021/11/24 12:14:44;;;;;;;18.95;12.95;;;;;;;;;;5012625;28;20465;-75
2021/11/24 12:17:33;;;;;;;14.98;12.02;;;;;;;;;;5021334;28;20021;-73
2021/11/24 12:20:18;;;;;;;34.63;23.52;;;;;;;;;;5024962;28;20034;-74
2021/11/24 12:22:48;;;;;;;18.73;15.77;;;;;;;;;;5018620;28;20070;-76
2021/11/24 12:25:23;;;;;;;26.27;20.73;;;;;;;;;;5023645;28;20358;-75
2021/11/24 12:27:49;;;;;;;;;;;;;;;;;;5019462;28;20022;-76
2021/11/24 12:30:15;;;;;;;28.13;20.55;;;;;;;;;;5028137;28;19909;-75
2021/11/24 12:32:41;;;;;;;31.30;24.30;;;;;;;;;;5011070;28;20052;-75
2021/11/24 12:35:16;;;;;;;22.27;17.23;;;;;;;;;;5015052;28;20124;-74
2021/11/24 12:37:43;;;;;;;32.95;21.85;;;;;;;;;;5032642;28;20148;-77
2021/11/24 12:40:12;;;;;;;29.25;23.48;;;;;;;;;;5017969;28;20028;-76
2021/11/24 12:42:38;;;;;;;25.50;19.45;;;;;;;;;;4998347;28;20034;-76
2021/11/24 12:45:04;;;;;;;21.60;16.00;;;;;;;;;;4993951;28;20026;-75
2021/11/24 12:47:30;;;;;;;18.52;13.55;;;;;;;;;;5000002;28;20026;-76
2021/11/24 12:50:15;;;;;;;15.25;11.23;;;;;;;;;;5016146;28;20048;-75
2021/11/24 12:52:53;;;;;;;20.65;15.35;;;;;;;;;;5026857;28;20124;-76
2021/11/24 12:55:19;;;;;;;26.27;17.70;;;;;;;;;;5020168;28;20030;-77
2021/11/24 12:57:46;;;;;;;28.65;20.52;;;;;;;;;;5020902;28;20048;-75
2021/11/24 13:00:30;;;;;;;19.35;15.57;;;;;;;;;;5012779;28;20033;-76
2021/11/24 13:03:04;;;;;;;28.30;21.38;;;;;;;;;;5013942;28;20393;-76
2021/11/24 13:05:30;;;;;;;23.75;18.88;;;;;;;;;;5000978;28;20030;-77
2021/11/24 13:07:56;;;;;;;28.05;19.15;;;;;;;;;;4993401;28;20038;-75
2021/11/24 13:10:25;;;;;;;25.30;20.50;;;;;;;;;;4993645;28;20065;-78
2021/11/24 13:12:52;;;;;;;24.90;18.05;;;;;;;;;;4995152;28;20046;-77
2021/11/24 13:15:18;;;;;;;24.92;18.45;;;;;;;;;;5025606;28;20044;-75
2021/11/24 13:17:51;;;;;;;26.48;17.70;;;;;;;;;;5029770;28;20025;-75
2021/11/24 13:20:35;;;;;;;20.67;15.60;;;;;;;;;;4999296;28;20413;-76
2021/11/24 13:23:02;;;;;;;19.48;13.85;;;;;;;;;;5003597;28;20025;-75
2021/11/24 13:25:29;;;;;;;17.42;13.65;;;;;;;;;;5027610;28;20033;-75
2021/11/24 13:28:00;;;;;;;52.80;39.75;;;;;;;;;;5028265;28;20043;-75
2021/11/24 13:30:26;;;;;;;73.20;50.65;;;;;;;;;;5010742;28;20029;-73
2021/11/24 13:33:00;;;;;;;29.80;20.48;;;;;;;;;;5001520;28;20065;-75
2021/11/24 13:35:28;;;;;;;18.77;15.00;;;;;;;;;;5020128;28;20382;-77
2021/11/24 13:37:54;;;;;;;16.42;12.10;;;;;;;;;;5017618;28;20060;-77
2021/11/24 13:40:33;;;;;;;16.20;11.27;;;;;;;;;;5014110;28;20030;-74
2021/11/24 13:42:59;;;;;;;14.63;11.52;;;;;;;;;;5012592;28;20080;-75
2021/11/24 13:45:36;;;;;;;20.55;14.10;;;;;;;;;;5009314;28;20030;-77
2021/11/24 13:48:10;;;;;;;28.95;19.35;;;;;;;;;;5011308;28;20100;-74
2021/11/24 13:50:36;;;;;;;15.97;11.73;;;;;;;;;;5014282;28;20030;-75
2021/11/24 13:53:21;;;;;;;13.45;10.48;;;;;;;;;;5014877;28;20096;-77
2021/11/24 13:55:47;;;;;;;126.00;80.38;;;;;;;;;;5013864;28;20033;-74
2021/11/24 13:58:14;;;;;;;86.72;61.22;;;;;;;;;;5021930;28;20026;-76
2021/11/24 14:00:40;;;;;;;75.28;48.80;;;;;;;;;;5003290;28;20425;-74
2021/11/24 14:03:06;;;;;;;22.45;17.02;;;;;;;;;;4999411;28;20485;-78
2021/11/24 14:05:35;;;;;;;18.17;12.32;;;;;;;;;;5007684;28;20034;-79
2021/11/24 14:08:01;;;;;;;17.52;12.60;;;;;;;;;;5010400;28;20034;-75
2021/11/24 14:10:29;;;;;;;18.20;14.50;;;;;;;;;;5011004;28;20077;-78
2021/11/24 14:12:57;;;;;;;15.57;11.23;;;;;;;;;;5014254;28;20029;-77
2021/11/24 14:15:24;;;;;;;17.00;12.82;;;;;;;;;;5009215;28;20116;-77
2021/11/24 14:18:09;;;;;;;17.50;13.60;;;;;;;;;;5012671;28;20026;-74
2021/11/24 14:20:41;;;;;;;17.65;13.18;;;;;;;;;;5013559;28;20033;-76
2021/11/24 14:23:12;;;;;;;16.13;12.90;;;;;;;;;;5012824;28;20044;-78